Aviation Digital Data Service (ADDS)

Output produced by METARs form (0502 UTC 04 July 2015)
found at http://aviationweather.gov/adds/metars/
 
KPHF 040412Z 0404/0424 11007KT 5SM -RA BR BKN020 OVC060 
     TEMPO 0404/0408 3SM -RA BR BKN010 
     FM040800 17008KT 4SM -SHRA BKN015 OVC040 
     FM041700 26012G17KT P6SM VCSH BKN040 BKN100